sensor_id;sensor_type;location;lat;lon;timestamp;P1;durP1;ratioP1;P2;durP2;ratioP2
17151;SDS011;8691;50.828;4.700;2023-05-07T00:00:16;7.50;;;4.60;;
17151;SDS011;8691;50.828;4.700;2023-05-07T00:02:43;5.85;;;4.00;;
17151;SDS011;8691;50.828;4.700;2023-05-07T00:05:10;6.63;;;4.30;;
17151;SDS011;8691;50.828;4.700;2023-05-07T00:07:37;7.00;;;4.03;;
17151;SDS011;8691;50.828;4.700;2023-05-07T00:10:04;5.95;;;4.00;;
17151;SDS011;8691;50.828;4.700;2023-05-07T00:12:31;6.22;;;3.95;;
17151;SDS011;8691;50.828;4.700;2023-05-07T00:14:59;6.13;;;4.20;;
17151;SDS011;8691;50.828;4.700;2023-05-07T00:17:26;6.50;;;3.93;;
17151;SDS011;8691;50.828;4.700;2023-05-07T00:19:53;7.17;;;4.27;;
17151;SDS011;8691;50.828;4.700;2023-05-07T00:22:20;6.03;;;3.85;;
17151;SDS011;8691;50.828;4.700;2023-05-07T00:24:47;5.95;;;3.72;;
17151;SDS011;8691;50.828;4.700;2023-05-07T00:27:15;5.78;;;3.50;;
17151;SDS011;8691;50.828;4.700;2023-05-07T00:29:41;5.28;;;3.80;;
17151;SDS011;8691;50.828;4.700;2023-05-07T00:32:08;5.10;;;3.70;;
17151;SDS011;8691;50.828;4.700;2023-05-07T00:34:35;4.00;;;3.28;;
17151;SDS011;8691;50.828;4.700;2023-05-07T00:37:03;5.73;;;3.33;;
17151;SDS011;8691;50.828;4.700;2023-05-07T00:39:30;5.22;;;3.38;;
17151;SDS011;8691;50.828;4.700;2023-05-07T00:41:57;7.20;;;3.45;;
17151;SDS011;8691;50.828;4.700;2023-05-07T00:44:23;8.30;;;3.60;;
17151;SDS011;8691;50.828;4.700;2023-05-07T00:46:50;6.95;;;3.42;;
17151;SDS011;8691;50.828;4.700;2023-05-07T00:49:18;6.18;;;3.30;;
17151;SDS011;8691;50.828;4.700;2023-05-07T00:51:45;6.82;;;3.50;;
17151;SDS011;8691;50.828;4.700;2023-05-07T00:54:12;4.77;;;3.37;;
17151;SDS011;8691;50.828;4.700;2023-05-07T00:56:39;6.22;;;3.83;;
17151;SDS011;8691;50.828;4.700;2023-05-07T00:59:05;6.80;;;3.40;;
17151;SDS011;8691;50.828;4.700;2023-05-07T01:01:32;6.18;;;3.80;;
17151;SDS011;8691;50.828;4.700;2023-05-07T01:03:59;6.10;;;4.10;;
17151;SDS011;8691;50.828;4.700;2023-05-07T01:06:26;15.45;;;9.95;;
17151;SDS011;8691;50.828;4.700;2023-05-07T01:08:54;9.40;;;5.83;;
17151;SDS011;8691;50.828;4.700;2023-05-07T01:11:20;7.07;;;4.90;;
17151;SDS011;8691;50.828;4.700;2023-05-07T01:13:47;6.60;;;4.57;;
17151;SDS011;8691;50.828;4.700;2023-05-07T01:16:15;5.75;;;4.43;;
17151;SDS011;8691;50.828;4.700;2023-05-07T01:18:42;5.30;;;4.22;;
17151;SDS011;8691;50.828;4.700;2023-05-07T01:21:10;8.97;;;5.00;;
17151;SDS011;8691;50.828;4.700;2023-05-07T01:23:37;5.93;;;4.50;;
17151;SDS011;8691;50.828;4.700;2023-05-07T01:26:04;6.37;;;4.80;;
17151;SDS011;8691;50.828;4.700;2023-05-07T01:28:31;6.38;;;4.40;;
17151;SDS011;8691;50.828;4.700;2023-05-07T01:31:00;6.32;;;4.60;;
17151;SDS011;8691;50.828;4.700;2023-05-07T01:33:24;8.02;;;4.82;;
17151;SDS011;8691;50.828;4.700;2023-05-07T01:35:53;6.10;;;4.07;;
17151;SDS011;8691;50.828;4.700;2023-05-07T01:38:19;5.27;;;3.47;;
17151;SDS011;8691;50.828;4.700;2023-05-07T01:40:46;5.15;;;3.53;;
17151;SDS011;8691;50.828;4.700;2023-05-07T01:43:13;4.00;;;2.97;;
17151;SDS011;8691;50.828;4.700;2023-05-07T01:45:40;4.62;;;3.38;;
17151;SDS011;8691;50.828;4.700;2023-05-07T01:48:07;5.22;;;3.50;;
17151;SDS011;8691;50.828;4.700;2023-05-07T01:50:33;5.70;;;3.47;;
17151;SDS011;8691;50.828;4.700;2023-05-07T01:53:01;6.12;;;3.80;;
17151;SDS011;8691;50.828;4.700;2023-05-07T01:55:28;6.60;;;3.55;;
17151;SDS011;8691;50.828;4.700;2023-05-07T01:57:54;5.97;;;3.70;;
17151;SDS011;8691;50.828;4.700;2023-05-07T02:00:21;4.30;;;3.40;;
17151;SDS011;8691;50.828;4.700;2023-05-07T02:02:48;5.22;;;3.58;;
17151;SDS011;8691;50.828;4.700;2023-05-07T02:05:15;4.57;;;3.67;;
17151;SDS011;8691;50.828;4.700;2023-05-07T02:07:42;6.32;;;3.88;;
17151;SDS011;8691;50.828;4.700;2023-05-07T02:10:09;6.10;;;3.80;;
17151;SDS011;8691;50.828;4.700;2023-05-07T02:12:36;5.83;;;4.20;;
17151;SDS011;8691;50.828;4.700;2023-05-07T02:15:03;8.25;;;3.95;;
17151;SDS011;8691;50.828;4.700;2023-05-07T02:17:30;6.38;;;4.10;;
17151;SDS011;8691;50.828;4.700;2023-05-07T02:19:57;5.75;;;3.88;;
17151;SDS011;8691;50.828;4.700;2023-05-07T02:22:24;6.73;;;4.07;;
17151;SDS011;8691;50.828;4.700;2023-05-07T02:24:51;6.70;;;4.20;;
17151;SDS011;8691;50.828;4.700;2023-05-07T02:27:18;6.00;;;3.83;;
17151;SDS011;8691;50.828;4.700;2023-05-07T02:29:45;6.38;;;3.80;;
17151;SDS011;8691;50.828;4.700;2023-05-07T02:32:12;7.12;;;4.20;;
17151;SDS011;8691;50.828;4.700;2023-05-07T02:34:39;6.88;;;4.50;;
17151;SDS011;8691;50.828;4.700;2023-05-07T02:37:06;4.75;;;3.85;;
17151;SDS011;8691;50.828;4.700;2023-05-07T02:39:33;5.60;;;4.17;;
17151;SDS011;8691;50.828;4.700;2023-05-07T02:42:00;7.47;;;4.00;;
17151;SDS011;8691;50.828;4.700;2023-05-07T02:44:27;4.62;;;4.10;;
17151;SDS011;8691;50.828;4.700;2023-05-07T02:46:54;6.80;;;4.50;;
17151;SDS011;8691;50.828;4.700;2023-05-07T02:49:21;6.72;;;4.40;;
17151;SDS011;8691;50.828;4.700;2023-05-07T02:51:48;7.22;;;4.10;;
17151;SDS011;8691;50.828;4.700;2023-05-07T02:54:15;6.22;;;4.40;;
17151;SDS011;8691;50.828;4.700;2023-05-07T02:56:41;5.97;;;4.27;;
17151;SDS011;8691;50.828;4.700;2023-05-07T02:59:08;5.23;;;3.90;;
17151;SDS011;8691;50.828;4.700;2023-05-07T03:01:35;4.78;;;4.00;;
17151;SDS011;8691;50.828;4.700;2023-05-07T03:04:02;5.65;;;3.70;;
17151;SDS011;8691;50.828;4.700;2023-05-07T03:06:29;4.82;;;3.72;;
17151;SDS011;8691;50.828;4.700;2023-05-07T03:08:56;5.45;;;3.92;;
17151;SDS011;8691;50.828;4.700;2023-05-07T03:11:23;6.97;;;4.00;;
17151;SDS011;8691;50.828;4.700;2023-05-07T03:13:51;5.87;;;4.00;;
17151;SDS011;8691;50.828;4.700;2023-05-07T03:16:19;5.72;;;3.95;;
17151;SDS011;8691;50.828;4.700;2023-05-07T03:18:46;6.12;;;3.90;;
17151;SDS011;8691;50.828;4.700;2023-05-07T03:21:13;5.90;;;3.47;;
17151;SDS011;8691;50.828;4.700;2023-05-07T03:23:40;4.95;;;3.50;;
17151;SDS011;8691;50.828;4.700;2023-05-07T03:26:07;5.17;;;3.67;;
17151;SDS011;8691;50.828;4.700;2023-05-07T03:28:34;5.50;;;3.62;;
17151;SDS011;8691;50.828;4.700;2023-05-07T03:31:01;5.80;;;3.80;;
17151;SDS011;8691;50.828;4.700;2023-05-07T03:33:28;5.22;;;3.83;;
17151;SDS011;8691;50.828;4.700;2023-05-07T03:35:55;5.53;;;4.40;;
17151;SDS011;8691;50.828;4.700;2023-05-07T03:38:22;6.97;;;3.80;;
17151;SDS011;8691;50.828;4.700;2023-05-07T03:40:48;4.40;;;4.00;;
17151;SDS011;8691;50.828;4.700;2023-05-07T03:43:15;6.85;;;4.50;;
17151;SDS011;8691;50.828;4.700;2023-05-07T03:45:42;5.55;;;4.00;;
17151;SDS011;8691;50.828;4.700;2023-05-07T03:48:09;4.78;;;3.88;;
17151;SDS011;8691;50.828;4.700;2023-05-07T03:50:36;4.45;;;3.70;;
17151;SDS011;8691;50.828;4.700;2023-05-07T03:53:03;4.28;;;3.67;;
17151;SDS011;8691;50.828;4.700;2023-05-07T03:55:30;4.40;;;4.00;;
17151;SDS011;8691;50.828;4.700;2023-05-07T03:57:57;5.33;;;3.50;;
17151;SDS011;8691;50.828;4.700;2023-05-07T04:00:24;4.60;;;3.30;;
17151;SDS011;8691;50.828;4.700;2023-05-07T04:02:51;5.80;;;3.73;;
17151;SDS011;8691;50.828;4.700;2023-05-07T04:05:19;4.65;;;3.60;;
17151;SDS011;8691;50.828;4.700;2023-05-07T04:07:45;6.17;;;3.87;;
17151;SDS011;8691;50.828;4.700;2023-05-07T04:10:12;5.38;;;3.72;;
17151;SDS011;8691;50.828;4.700;2023-05-07T04:12:39;5.43;;;3.62;;
17151;SDS011;8691;50.828;4.700;2023-05-07T04:15:06;4.80;;;3.78;;
17151;SDS011;8691;50.828;4.700;2023-05-07T04:17:33;5.72;;;3.85;;
17151;SDS011;8691;50.828;4.700;2023-05-07T04:20:00;6.82;;;4.12;;
17151;SDS011;8691;50.828;4.700;2023-05-07T04:22:27;5.10;;;4.30;;
17151;SDS011;8691;50.828;4.700;2023-05-07T04:24:54;5.93;;;4.23;;
17151;SDS011;8691;50.828;4.700;2023-05-07T04:27:22;4.20;;;3.80;;
17151;SDS011;8691;50.828;4.700;2023-05-07T04:29:50;4.67;;;3.40;;
17151;SDS011;8691;50.828;4.700;2023-05-07T04:32:17;4.12;;;3.47;;
17151;SDS011;8691;50.828;4.700;2023-05-07T04:34:43;5.43;;;3.50;;
17151;SDS011;8691;50.828;4.700;2023-05-07T04:37:10;6.10;;;4.00;;
17151;SDS011;8691;50.828;4.700;2023-05-07T04:39:37;6.28;;;3.72;;
17151;SDS011;8691;50.828;4.700;2023-05-07T04:42:05;5.25;;;3.90;;
17151;SDS011;8691;50.828;4.700;2023-05-07T04:44:31;5.60;;;3.57;;
17151;SDS011;8691;50.828;4.700;2023-05-07T04:46:58;4.95;;;3.75;;
17151;SDS011;8691;50.828;4.700;2023-05-07T04:49:25;4.97;;;3.60;;
17151;SDS011;8691;50.828;4.700;2023-05-07T04:51:52;6.97;;;3.30;;
17151;SDS011;8691;50.828;4.700;2023-05-07T04:54:19;6.33;;;3.80;;
17151;SDS011;8691;50.828;4.700;2023-05-07T04:56:46;5.28;;;4.20;;
17151;SDS011;8691;50.828;4.700;2023-05-07T04:59:12;5.38;;;4.10;;
17151;SDS011;8691;50.828;4.700;2023-05-07T05:01:39;4.13;;;3.73;;
17151;SDS011;8691;50.828;4.700;2023-05-07T05:04:07;5.57;;;4.20;;
17151;SDS011;8691;50.828;4.700;2023-05-07T05:06:34;5.87;;;4.00;;
17151;SDS011;8691;50.828;4.700;2023-05-07T05:09:01;6.78;;;3.97;;
17151;SDS011;8691;50.828;4.700;2023-05-07T05:11:28;7.80;;;4.20;;
17151;SDS011;8691;50.828;4.700;2023-05-07T05:13:55;5.55;;;4.15;;
17151;SDS011;8691;50.828;4.700;2023-05-07T05:16:22;5.30;;;3.92;;
17151;SDS011;8691;50.828;4.700;2023-05-07T05:18:49;5.10;;;3.90;;
17151;SDS011;8691;50.828;4.700;2023-05-07T05:21:16;4.07;;;3.43;;
17151;SDS011;8691;50.828;4.700;2023-05-07T05:23:43;6.03;;;4.60;;
17151;SDS011;8691;50.828;4.700;2023-05-07T05:26:10;8.07;;;5.12;;
17151;SDS011;8691;50.828;4.700;2023-05-07T05:28:37;6.55;;;4.93;;
17151;SDS011;8691;50.828;4.700;2023-05-07T05:31:04;6.57;;;4.70;;
17151;SDS011;8691;50.828;4.700;2023-05-07T05:33:31;5.82;;;3.60;;
17151;SDS011;8691;50.828;4.700;2023-05-07T05:35:58;5.78;;;3.78;;
17151;SDS011;8691;50.828;4.700;2023-05-07T05:38:25;6.53;;;4.00;;
17151;SDS011;8691;50.828;4.700;2023-05-07T05:40:52;5.77;;;4.03;;
17151;SDS011;8691;50.828;4.700;2023-05-07T05:43:19;6.80;;;3.83;;
17151;SDS011;8691;50.828;4.700;2023-05-07T05:45:46;9.13;;;4.23;;
17151;SDS011;8691;50.828;4.700;2023-05-07T05:48:12;6.03;;;4.78;;
17151;SDS011;8691;50.828;4.700;2023-05-07T05:50:39;8.10;;;5.00;;
17151;SDS011;8691;50.828;4.700;2023-05-07T05:53:07;6.18;;;5.00;;
17151;SDS011;8691;50.828;4.700;2023-05-07T05:55:34;5.10;;;4.40;;
17151;SDS011;8691;50.828;4.700;2023-05-07T05:58:01;6.20;;;4.65;;
17151;SDS011;8691;50.828;4.700;2023-05-07T06:00:28;6.65;;;5.03;;
17151;SDS011;8691;50.828;4.700;2023-05-07T06:02:55;8.55;;;4.62;;
17151;SDS011;8691;50.828;4.700;2023-05-07T06:05:22;8.67;;;5.03;;
17151;SDS011;8691;50.828;4.700;2023-05-07T06:07:49;6.10;;;4.40;;
17151;SDS011;8691;50.828;4.700;2023-05-07T06:10:16;6.97;;;4.68;;
17151;SDS011;8691;50.828;4.700;2023-05-07T06:12:43;6.00;;;4.70;;
17151;SDS011;8691;50.828;4.700;2023-05-07T06:15:10;5.88;;;4.50;;
17151;SDS011;8691;50.828;4.700;2023-05-07T06:17:37;7.40;;;4.20;;
17151;SDS011;8691;50.828;4.700;2023-05-07T06:20:04;8.40;;;5.30;;
17151;SDS011;8691;50.828;4.700;2023-05-07T06:22:32;5.68;;;4.45;;
17151;SDS011;8691;50.828;4.700;2023-05-07T06:24:59;8.23;;;4.85;;
17151;SDS011;8691;50.828;4.700;2023-05-07T06:27:26;6.65;;;4.45;;
17151;SDS011;8691;50.828;4.700;2023-05-07T06:29:53;8.10;;;4.23;;
17151;SDS011;8691;50.828;4.700;2023-05-07T06:32:21;6.55;;;4.68;;
17151;SDS011;8691;50.828;4.700;2023-05-07T06:34:48;6.33;;;4.17;;
17151;SDS011;8691;50.828;4.700;2023-05-07T06:37:15;5.53;;;4.07;;
17151;SDS011;8691;50.828;4.700;2023-05-07T06:39:42;5.88;;;4.30;;
17151;SDS011;8691;50.828;4.700;2023-05-07T06:42:08;6.73;;;4.30;;
17151;SDS011;8691;50.828;4.700;2023-05-07T06:44:36;6.23;;;4.40;;
17151;SDS011;8691;50.828;4.700;2023-05-07T06:47:04;8.20;;;4.30;;
17151;SDS011;8691;50.828;4.700;2023-05-07T06:49:31;8.80;;;4.55;;
17151;SDS011;8691;50.828;4.700;2023-05-07T06:51:58;7.75;;;4.20;;
17151;SDS011;8691;50.828;4.700;2023-05-07T06:54:25;7.20;;;4.75;;
17151;SDS011;8691;50.828;4.700;2023-05-07T06:56:52;7.63;;;4.70;;
17151;SDS011;8691;50.828;4.700;2023-05-07T06:59:18;7.13;;;4.90;;
17151;SDS011;8691;50.828;4.700;2023-05-07T07:01:46;7.62;;;4.88;;
17151;SDS011;8691;50.828;4.700;2023-05-07T07:04:13;9.80;;;5.80;;
17151;SDS011;8691;50.828;4.700;2023-05-07T07:06:40;9.40;;;5.50;;
17151;SDS011;8691;50.828;4.700;2023-05-07T07:09:06;7.75;;;4.50;;
17151;SDS011;8691;50.828;4.700;2023-05-07T07:11:33;7.53;;;4.70;;
17151;SDS011;8691;50.828;4.700;2023-05-07T07:14:00;6.67;;;4.20;;
17151;SDS011;8691;50.828;4.700;2023-05-07T07:16:27;7.57;;;4.22;;
17151;SDS011;8691;50.828;4.700;2023-05-07T07:18:54;8.38;;;4.15;;
17151;SDS011;8691;50.828;4.700;2023-05-07T07:21:21;7.43;;;3.57;;
17151;SDS011;8691;50.828;4.700;2023-05-07T07:23:48;6.15;;;3.50;;
17151;SDS011;8691;50.828;4.700;2023-05-07T07:26:15;7.25;;;3.65;;
17151;SDS011;8691;50.828;4.700;2023-05-07T07:28:42;9.60;;;2.93;;
17151;SDS011;8691;50.828;4.700;2023-05-07T07:31:08;7.70;;;3.20;;
17151;SDS011;8691;50.828;4.700;2023-05-07T07:33:35;6.35;;;3.30;;
17151;SDS011;8691;50.828;4.700;2023-05-07T07:36:03;7.03;;;3.40;;
17151;SDS011;8691;50.828;4.700;2023-05-07T07:38:30;6.17;;;3.00;;
17151;SDS011;8691;50.828;4.700;2023-05-07T07:40:57;6.80;;;3.22;;
17151;SDS011;8691;50.828;4.700;2023-05-07T07:43:23;6.62;;;3.38;;
17151;SDS011;8691;50.828;4.700;2023-05-07T07:45:51;6.12;;;3.30;;
17151;SDS011;8691;50.828;4.700;2023-05-07T07:48:18;5.93;;;3.40;;
17151;SDS011;8691;50.828;4.700;2023-05-07T07:50:45;8.00;;;3.27;;
17151;SDS011;8691;50.828;4.700;2023-05-07T07:53:11;7.03;;;3.28;;
17151;SDS011;8691;50.828;4.700;2023-05-07T07:55:39;4.47;;;2.83;;
17151;SDS011;8691;50.828;4.700;2023-05-07T07:58:06;5.77;;;2.97;;
17151;SDS011;8691;50.828;4.700;2023-05-07T08:00:33;5.15;;;2.58;;
17151;SDS011;8691;50.828;4.700;2023-05-07T08:03:00;6.03;;;2.88;;
17151;SDS011;8691;50.828;4.700;2023-05-07T08:05:28;5.78;;;2.45;;
17151;SDS011;8691;50.828;4.700;2023-05-07T08:07:56;4.90;;;2.47;;
17151;SDS011;8691;50.828;4.700;2023-05-07T08:10:24;6.20;;;2.30;;
17151;SDS011;8691;50.828;4.700;2023-05-07T08:12:50;4.97;;;2.37;;
17151;SDS011;8691;50.828;4.700;2023-05-07T08:15:17;5.95;;;2.78;;
17151;SDS011;8691;50.828;4.700;2023-05-07T08:17:44;4.70;;;2.20;;
17151;SDS011;8691;50.828;4.700;2023-05-07T08:20:11;5.95;;;2.60;;
17151;SDS011;8691;50.828;4.700;2023-05-07T08:22:38;5.25;;;2.70;;
17151;SDS011;8691;50.828;4.700;2023-05-07T08:25:05;4.65;;;2.33;;
17151;SDS011;8691;50.828;4.700;2023-05-07T08:27:32;4.85;;;2.50;;
17151;SDS011;8691;50.828;4.700;2023-05-07T08:29:58;4.68;;;2.67;;
17151;SDS011;8691;50.828;4.700;2023-05-07T08:32:25;5.07;;;2.40;;
17151;SDS011;8691;50.828;4.700;2023-05-07T08:34:52;4.68;;;2.62;;
17151;SDS011;8691;50.828;4.700;2023-05-07T08:37:20;5.00;;;2.78;;
17151;SDS011;8691;50.828;4.700;2023-05-07T08:39:46;6.00;;;2.70;;
17151;SDS011;8691;50.828;4.700;2023-05-07T08:42:13;4.82;;;2.60;;
17151;SDS011;8691;50.828;4.700;2023-05-07T08:44:40;4.57;;;2.45;;
17151;SDS011;8691;50.828;4.700;2023-05-07T08:47:07;4.57;;;2.60;;
17151;SDS011;8691;50.828;4.700;2023-05-07T08:49:33;4.65;;;2.70;;
17151;SDS011;8691;50.828;4.700;2023-05-07T08:52:02;5.67;;;2.03;;
17151;SDS011;8691;50.828;4.700;2023-05-07T08:54:29;5.18;;;2.95;;
17151;SDS011;8691;50.828;4.700;2023-05-07T08:56:56;5.33;;;2.73;;
17151;SDS011;8691;50.828;4.700;2023-05-07T08:59:23;4.73;;;2.80;;
17151;SDS011;8691;50.828;4.700;2023-05-07T09:01:50;5.95;;;2.78;;
17151;SDS011;8691;50.828;4.700;2023-05-07T09:04:17;4.60;;;2.67;;
17151;SDS011;8691;50.828;4.700;2023-05-07T09:06:44;6.55;;;2.83;;
17151;SDS011;8691;50.828;4.700;2023-05-07T09:09:13;4.53;;;2.70;;
17151;SDS011;8691;50.828;4.700;2023-05-07T09:11:38;5.95;;;2.95;;
17151;SDS011;8691;50.828;4.700;2023-05-07T09:14:05;4.90;;;2.60;;
17151;SDS011;8691;50.828;4.700;2023-05-07T09:16:32;5.00;;;3.10;;
17151;SDS011;8691;50.828;4.700;2023-05-07T09:18:59;5.32;;;2.92;;
17151;SDS011;8691;50.828;4.700;2023-05-07T09:21:26;5.68;;;2.75;;
17151;SDS011;8691;50.828;4.700;2023-05-07T09:23:54;6.20;;;3.17;;
17151;SDS011;8691;50.828;4.700;2023-05-07T09:26:23;6.00;;;3.00;;
17151;SDS011;8691;50.828;4.700;2023-05-07T09:28:51;5.60;;;2.85;;
17151;SDS011;8691;50.828;4.700;2023-05-07T09:31:18;4.57;;;2.60;;
17151;SDS011;8691;50.828;4.700;2023-05-07T09:33:45;5.50;;;2.70;;
17151;SDS011;8691;50.828;4.700;2023-05-07T09:36:12;5.25;;;2.70;;
17151;SDS011;8691;50.828;4.700;2023-05-07T09:38:38;6.57;;;2.90;;
17151;SDS011;8691;50.828;4.700;2023-05-07T09:41:06;4.90;;;2.60;;
17151;SDS011;8691;50.828;4.700;2023-05-07T09:43:36;5.80;;;2.78;;
17151;SDS011;8691;50.828;4.700;2023-05-07T09:46:02;5.57;;;2.67;;
17151;SDS011;8691;50.828;4.700;2023-05-07T09:48:30;5.30;;;3.20;;
17151;SDS011;8691;50.828;4.700;2023-05-07T09:50:56;4.87;;;2.67;;
17151;SDS011;8691;50.828;4.700;2023-05-07T09:53:26;4.97;;;2.58;;
17151;SDS011;8691;50.828;4.700;2023-05-07T09:55:53;4.53;;;2.78;;
17151;SDS011;8691;50.828;4.700;2023-05-07T09:58:20;4.03;;;2.50;;
17151;SDS011;8691;50.828;4.700;2023-05-07T10:00:46;4.50;;;2.53;;
17151;SDS011;8691;50.828;4.700;2023-05-07T10:03:13;3.95;;;2.55;;
17151;SDS011;8691;50.828;4.700;2023-05-07T10:05:40;5.30;;;2.90;;
17151;SDS011;8691;50.828;4.700;2023-05-07T10:08:07;4.90;;;3.00;;
17151;SDS011;8691;50.828;4.700;2023-05-07T10:10:34;6.17;;;3.20;;
17151;SDS011;8691;50.828;4.700;2023-05-07T10:13:01;5.62;;;2.80;;
17151;SDS011;8691;50.828;4.700;2023-05-07T10:15:27;4.87;;;2.27;;
17151;SDS011;8691;50.828;4.700;2023-05-07T10:17:54;5.45;;;2.95;;
17151;SDS011;8691;50.828;4.700;2023-05-07T10:20:21;5.50;;;2.83;;
17151;SDS011;8691;50.828;4.700;2023-05-07T10:22:48;4.77;;;2.40;;
17151;SDS011;8691;50.828;4.700;2023-05-07T10:25:26;4.73;;;2.60;;
17151;SDS011;8691;50.828;4.700;2023-05-07T10:27:52;5.47;;;3.35;;
17151;SDS011;8691;50.828;4.700;2023-05-07T10:30:30;5.62;;;3.28;;
17151;SDS011;8691;50.828;4.700;2023-05-07T10:33:04;2.95;;;2.42;;
17151;SDS011;8691;50.828;4.700;2023-05-07T10:35:31;4.80;;;2.40;;
17151;SDS011;8691;50.828;4.700;2023-05-07T10:37:58;3.85;;;2.20;;
17151;SDS011;8691;50.828;4.700;2023-05-07T10:40:25;5.20;;;2.62;;
17151;SDS011;8691;50.828;4.700;2023-05-07T10:42:53;4.13;;;2.30;;
17151;SDS011;8691;50.828;4.700;2023-05-07T10:45:19;4.57;;;2.00;;
17151;SDS011;8691;50.828;4.700;2023-05-07T10:50:41;5.55;;;2.55;;
17151;SDS011;8691;50.828;4.700;2023-05-07T10:55:44;4.57;;;2.30;;
17151;SDS011;8691;50.828;4.700;2023-05-07T10:58:26;4.37;;;2.30;;
17151;SDS011;8691;50.828;4.700;2023-05-07T11:00:56;3.73;;;2.00;;
17151;SDS011;8691;50.828;4.700;2023-05-07T11:03:22;3.03;;;1.90;;
17151;SDS011;8691;50.828;4.700;2023-05-07T11:06:08;5.47;;;1.83;;
17151;SDS011;8691;50.828;4.700;2023-05-07T11:08:16;3.72;;;1.50;;
17151;SDS011;8691;50.828;4.700;2023-05-07T11:10:49;3.13;;;1.43;;
17151;SDS011;8691;50.828;4.700;2023-05-07T11:13:18;2.60;;;1.20;;
17151;SDS011;8691;50.828;4.700;2023-05-07T11:15:46;3.20;;;1.23;;
17151;SDS011;8691;50.828;4.700;2023-05-07T11:18:14;3.53;;;1.35;;
17151;SDS011;8691;50.828;4.700;2023-05-07T11:26:04;3.17;;;1.60;;
17151;SDS011;8691;50.828;4.700;2023-05-07T11:28:40;3.70;;;1.60;;
17151;SDS011;8691;50.828;4.700;2023-05-07T11:31:06;2.97;;;1.55;;
17151;SDS011;8691;50.828;4.700;2023-05-07T11:33:34;3.60;;;1.60;;
17151;SDS011;8691;50.828;4.700;2023-05-07T11:36:04;4.60;;;1.80;;
17151;SDS011;8691;50.828;4.700;2023-05-07T11:38:34;5.93;;;1.83;;
17151;SDS011;8691;50.828;4.700;2023-05-07T11:40:58;3.80;;;1.67;;
17151;SDS011;8691;50.828;4.700;2023-05-07T11:43:27;3.10;;;1.77;;
17151;SDS011;8691;50.828;4.700;2023-05-07T11:45:54;3.78;;;1.55;;
17151;SDS011;8691;50.828;4.700;2023-05-07T11:48:21;2.17;;;1.48;;
17151;SDS011;8691;50.828;4.700;2023-05-07T11:50:51;3.78;;;1.60;;
17151;SDS011;8691;50.828;4.700;2023-05-07T11:53:20;5.50;;;1.50;;
17151;SDS011;8691;50.828;4.700;2023-05-07T11:55:47;4.18;;;1.60;;
17151;SDS011;8691;50.828;4.700;2023-05-07T11:58:20;2.23;;;1.13;;
17151;SDS011;8691;50.828;4.700;2023-05-07T12:00:47;2.27;;;1.27;;
17151;SDS011;8691;50.828;4.700;2023-05-07T12:03:07;2.78;;;1.30;;
17151;SDS011;8691;50.828;4.700;2023-05-07T12:05:34;2.87;;;1.50;;
17151;SDS011;8691;50.828;4.700;2023-05-07T12:08:01;3.87;;;1.87;;
17151;SDS011;8691;50.828;4.700;2023-05-07T12:10:28;3.08;;;1.67;;
17151;SDS011;8691;50.828;4.700;2023-05-07T12:12:56;1.83;;;1.27;;
17151;SDS011;8691;50.828;4.700;2023-05-07T12:15:23;2.62;;;1.12;;
17151;SDS011;8691;50.828;4.700;2023-05-07T12:17:50;3.03;;;1.38;;
17151;SDS011;8691;50.828;4.700;2023-05-07T12:20:16;3.23;;;1.50;;
17151;SDS011;8691;50.828;4.700;2023-05-07T12:22:43;2.67;;;1.30;;
17151;SDS011;8691;50.828;4.700;2023-05-07T12:25:10;2.70;;;1.30;;
17151;SDS011;8691;50.828;4.700;2023-05-07T12:27:37;2.38;;;1.40;;
17151;SDS011;8691;50.828;4.700;2023-05-07T12:30:05;4.22;;;1.40;;
17151;SDS011;8691;50.828;4.700;2023-05-07T12:32:31;2.70;;;1.60;;
17151;SDS011;8691;50.828;4.700;2023-05-07T12:34:58;3.07;;;1.50;;
17151;SDS011;8691;50.828;4.700;2023-05-07T12:37:25;4.15;;;1.55;;
17151;SDS011;8691;50.828;4.700;2023-05-07T12:40:09;2.80;;;1.52;;
17151;SDS011;8691;50.828;4.700;2023-05-07T12:42:38;2.13;;;1.60;;
17151;SDS011;8691;50.828;4.700;2023-05-07T12:45:11;2.53;;;1.43;;
17151;SDS011;8691;50.828;4.700;2023-05-07T12:47:43;3.17;;;1.70;;
17151;SDS011;8691;50.828;4.700;2023-05-07T12:50:07;3.12;;;1.52;;
17151;SDS011;8691;50.828;4.700;2023-05-07T12:52:34;2.42;;;1.52;;
17151;SDS011;8691;50.828;4.700;2023-05-07T12:55:04;2.30;;;1.48;;
17151;SDS011;8691;50.828;4.700;2023-05-07T12:57:30;3.40;;;1.80;;
17151;SDS011;8691;50.828;4.700;2023-05-07T12:59:57;2.97;;;1.63;;
17151;SDS011;8691;50.828;4.700;2023-05-07T13:02:31;3.72;;;1.80;;
17151;SDS011;8691;50.828;4.700;2023-05-07T13:04:51;4.10;;;1.67;;
17151;SDS011;8691;50.828;4.700;2023-05-07T13:07:18;3.63;;;1.73;;
17151;SDS011;8691;50.828;4.700;2023-05-07T13:09:45;3.13;;;1.60;;
17151;SDS011;8691;50.828;4.700;2023-05-07T13:12:12;2.40;;;1.55;;
17151;SDS011;8691;50.828;4.700;2023-05-07T13:14:39;3.30;;;1.63;;
17151;SDS011;8691;50.828;4.700;2023-05-07T13:17:06;2.73;;;1.70;;
17151;SDS011;8691;50.828;4.700;2023-05-07T13:19:33;3.30;;;1.87;;
17151;SDS011;8691;50.828;4.700;2023-05-07T13:22:00;3.25;;;1.60;;
17151;SDS011;8691;50.828;4.700;2023-05-07T13:24:27;2.72;;;1.55;;
17151;SDS011;8691;50.828;4.700;2023-05-07T13:26:54;2.60;;;1.60;;
17151;SDS011;8691;50.828;4.700;2023-05-07T13:29:21;2.95;;;1.70;;
17151;SDS011;8691;50.828;4.700;2023-05-07T13:31:47;4.27;;;1.70;;
17151;SDS011;8691;50.828;4.700;2023-05-07T13:34:14;2.42;;;1.67;;
17151;SDS011;8691;50.828;4.700;2023-05-07T13:36:41;3.90;;;1.70;;
17151;SDS011;8691;50.828;4.700;2023-05-07T13:39:08;2.20;;;1.60;;
17151;SDS011;8691;50.828;4.700;2023-05-07T13:41:34;2.77;;;1.47;;
17151;SDS011;8691;50.828;4.700;2023-05-07T13:44:01;2.33;;;1.33;;
17151;SDS011;8691;50.828;4.700;2023-05-07T13:46:28;2.97;;;1.52;;
17151;SDS011;8691;50.828;4.700;2023-05-07T13:48:55;2.15;;;1.60;;
17151;SDS011;8691;50.828;4.700;2023-05-07T13:51:22;2.88;;;1.62;;
17151;SDS011;8691;50.828;4.700;2023-05-07T13:53:49;4.62;;;1.80;;
17151;SDS011;8691;50.828;4.700;2023-05-07T13:56:16;2.53;;;1.60;;
17151;SDS011;8691;50.828;4.700;2023-05-07T13:58:43;2.53;;;1.98;;
17151;SDS011;8691;50.828;4.700;2023-05-07T14:01:10;2.57;;;1.60;;
17151;SDS011;8691;50.828;4.700;2023-05-07T14:03:37;3.85;;;1.65;;
17151;SDS011;8691;50.828;4.700;2023-05-07T14:06:04;2.28;;;1.77;;
17151;SDS011;8691;50.828;4.700;2023-05-07T14:08:30;1.90;;;1.60;;
17151;SDS011;8691;50.828;4.700;2023-05-07T14:10:57;3.03;;;1.50;;
17151;SDS011;8691;50.828;4.700;2023-05-07T14:13:25;2.67;;;1.70;;
17151;SDS011;8691;50.828;4.700;2023-05-07T14:15:52;3.00;;;1.60;;
17151;SDS011;8691;50.828;4.700;2023-05-07T14:18:19;2.20;;;1.70;;
17151;SDS011;8691;50.828;4.700;2023-05-07T14:20:45;1.73;;;1.40;;
17151;SDS011;8691;50.828;4.700;2023-05-07T14:23:12;3.25;;;1.67;;
17151;SDS011;8691;50.828;4.700;2023-05-07T14:25:39;2.80;;;1.90;;
17151;SDS011;8691;50.828;4.700;2023-05-07T14:28:06;2.88;;;1.98;;
17151;SDS011;8691;50.828;4.700;2023-05-07T14:30:34;3.30;;;2.00;;
17151;SDS011;8691;50.828;4.700;2023-05-07T14:33:01;3.10;;;1.80;;
17151;SDS011;8691;50.828;4.700;2023-05-07T14:35:28;3.60;;;1.85;;
17151;SDS011;8691;50.828;4.700;2023-05-07T14:37:55;3.13;;;1.70;;
17151;SDS011;8691;50.828;4.700;2023-05-07T14:40:23;3.00;;;1.73;;
17151;SDS011;8691;50.828;4.700;2023-05-07T14:42:50;6.33;;;2.00;;
17151;SDS011;8691;50.828;4.700;2023-05-07T14:45:17;3.20;;;2.00;;
17151;SDS011;8691;50.828;4.700;2023-05-07T14:47:44;3.17;;;2.03;;
17151;SDS011;8691;50.828;4.700;2023-05-07T14:50:11;2.42;;;1.80;;
17151;SDS011;8691;50.828;4.700;2023-05-07T14:52:38;2.37;;;1.90;;
17151;SDS011;8691;50.828;4.700;2023-05-07T14:55:05;3.83;;;2.10;;
17151;SDS011;8691;50.828;4.700;2023-05-07T14:57:32;2.37;;;1.80;;
17151;SDS011;8691;50.828;4.700;2023-05-07T14:59:59;2.55;;;1.60;;
17151;SDS011;8691;50.828;4.700;2023-05-07T15:02:26;3.33;;;1.80;;
17151;SDS011;8691;50.828;4.700;2023-05-07T15:04:53;3.53;;;2.00;;
17151;SDS011;8691;50.828;4.700;2023-05-07T15:07:20;2.65;;;1.90;;
17151;SDS011;8691;50.828;4.700;2023-05-07T15:09:47;4.05;;;2.05;;